sensor_id;sensor_type;location;lat;lon;timestamp;P1;durP1;ratioP1;P2;durP2;ratioP2
211;SDS011;16228;48.800;9.002;2022-08-19T00:01:16;12.27;;;11.07;;
211;SDS011;16228;48.800;9.002;2022-08-19T00:03:43;12.57;;;11.27;;
211;SDS011;16228;48.800;9.002;2022-08-19T00:06:10;13.97;;;12.57;;
211;SDS011;16228;48.800;9.002;2022-08-19T00:08:37;14.20;;;12.87;;
211;SDS011;16228;48.800;9.002;2022-08-19T00:11:04;13.17;;;11.87;;
211;SDS011;16228;48.800;9.002;2022-08-19T00:13:34;12.37;;;11.17;;
211;SDS011;16228;48.800;9.002;2022-08-19T00:16:01;12.67;;;11.47;;
211;SDS011;16228;48.800;9.002;2022-08-19T00:18:29;13.30;;;11.97;;
211;SDS011;16228;48.800;9.002;2022-08-19T00:20:57;13.90;;;12.60;;
211;SDS011;16228;48.800;9.002;2022-08-19T00:23:24;14.10;;;12.70;;
211;SDS011;16228;48.800;9.002;2022-08-19T00:25:51;14.93;;;13.43;;
211;SDS011;16228;48.800;9.002;2022-08-19T00:28:18;14.63;;;12.57;;
211;SDS011;16228;48.800;9.002;2022-08-19T00:30:47;13.10;;;11.90;;
211;SDS011;16228;48.800;9.002;2022-08-19T00:33:16;14.13;;;12.40;;
211;SDS011;16228;48.800;9.002;2022-08-19T00:35:43;14.27;;;12.93;;
211;SDS011;16228;48.800;9.002;2022-08-19T00:38:10;13.43;;;12.13;;
211;SDS011;16228;48.800;9.002;2022-08-19T00:40:37;16.83;;;13.30;;
211;SDS011;16228;48.800;9.002;2022-08-19T00:43:07;13.87;;;12.43;;
211;SDS011;16228;48.800;9.002;2022-08-19T00:45:36;15.27;;;13.67;;
211;SDS011;16228;48.800;9.002;2022-08-19T00:48:07;14.43;;;12.97;;
211;SDS011;16228;48.800;9.002;2022-08-19T00:50:34;14.50;;;13.00;;
211;SDS011;16228;48.800;9.002;2022-08-19T00:53:02;14.40;;;12.97;;
211;SDS011;16228;48.800;9.002;2022-08-19T00:55:30;15.30;;;13.80;;
211;SDS011;16228;48.800;9.002;2022-08-19T00:58:00;15.63;;;14.00;;
211;SDS011;16228;48.800;9.002;2022-08-19T01:00:30;14.87;;;13.47;;
211;SDS011;16228;48.800;9.002;2022-08-19T01:03:01;15.53;;;13.87;;
211;SDS011;16228;48.800;9.002;2022-08-19T01:05:30;15.50;;;14.00;;
211;SDS011;16228;48.800;9.002;2022-08-19T01:07:58;16.70;;;14.73;;
211;SDS011;16228;48.800;9.002;2022-08-19T01:10:29;16.83;;;14.63;;
211;SDS011;16228;48.800;9.002;2022-08-19T01:12:58;16.77;;;15.13;;
211;SDS011;16228;48.800;9.002;2022-08-19T01:15:27;14.57;;;13.07;;
211;SDS011;16228;48.800;9.002;2022-08-19T01:17:57;16.90;;;14.60;;
211;SDS011;16228;48.800;9.002;2022-08-19T01:20:27;17.30;;;15.57;;
211;SDS011;16228;48.800;9.002;2022-08-19T01:22:57;16.37;;;14.67;;
211;SDS011;16228;48.800;9.002;2022-08-19T01:25:31;15.30;;;13.70;;
211;SDS011;16228;48.800;9.002;2022-08-19T01:28:01;15.57;;;14.03;;
211;SDS011;16228;48.800;9.002;2022-08-19T01:30:30;16.73;;;15.00;;
211;SDS011;16228;48.800;9.002;2022-08-19T01:32:59;18.07;;;16.17;;
211;SDS011;16228;48.800;9.002;2022-08-19T01:35:28;18.23;;;16.43;;
211;SDS011;16228;48.800;9.002;2022-08-19T01:37:58;19.27;;;16.27;;
211;SDS011;16228;48.800;9.002;2022-08-19T01:40:28;19.13;;;17.23;;
211;SDS011;16228;48.800;9.002;2022-08-19T01:42:58;17.97;;;16.17;;
211;SDS011;16228;48.800;9.002;2022-08-19T01:45:26;18.63;;;16.60;;
211;SDS011;16228;48.800;9.002;2022-08-19T01:47:54;17.57;;;15.83;;
211;SDS011;16228;48.800;9.002;2022-08-19T01:50:21;17.83;;;16.03;;
211;SDS011;16228;48.800;9.002;2022-08-19T01:52:49;17.23;;;15.40;;
211;SDS011;16228;48.800;9.002;2022-08-19T01:55:18;17.83;;;15.97;;
211;SDS011;16228;48.800;9.002;2022-08-19T01:57:50;19.23;;;17.17;;
211;SDS011;16228;48.800;9.002;2022-08-19T02:00:22;17.77;;;15.87;;
211;SDS011;16228;48.800;9.002;2022-08-19T02:02:50;16.33;;;14.63;;
211;SDS011;16228;48.800;9.002;2022-08-19T02:05:18;18.93;;;16.67;;
211;SDS011;16228;48.800;9.002;2022-08-19T02:07:46;18.20;;;16.40;;
211;SDS011;16228;48.800;9.002;2022-08-19T02:10:14;21.40;;;18.77;;
211;SDS011;16228;48.800;9.002;2022-08-19T02:12:45;19.30;;;17.30;;
211;SDS011;16228;48.800;9.002;2022-08-19T02:15:12;20.37;;;18.20;;
211;SDS011;16228;48.800;9.002;2022-08-19T02:17:39;18.50;;;16.33;;
211;SDS011;16228;48.800;9.002;2022-08-19T02:20:07;17.93;;;16.00;;
211;SDS011;16228;48.800;9.002;2022-08-19T02:22:35;20.60;;;18.40;;
211;SDS011;16228;48.800;9.002;2022-08-19T02:25:02;19.23;;;16.67;;
211;SDS011;16228;48.800;9.002;2022-08-19T02:27:30;21.50;;;19.43;;
211;SDS011;16228;48.800;9.002;2022-08-19T02:30:00;19.43;;;17.43;;
211;SDS011;16228;48.800;9.002;2022-08-19T02:32:27;18.87;;;16.97;;
211;SDS011;16228;48.800;9.002;2022-08-19T02:34:55;19.53;;;17.30;;
211;SDS011;16228;48.800;9.002;2022-08-19T02:37:22;19.90;;;17.83;;
211;SDS011;16228;48.800;9.002;2022-08-19T02:40:03;21.43;;;19.13;;
211;SDS011;16228;48.800;9.002;2022-08-19T02:42:32;20.80;;;18.60;;
211;SDS011;16228;48.800;9.002;2022-08-19T02:45:00;19.23;;;17.33;;
211;SDS011;16228;48.800;9.002;2022-08-19T02:47:27;19.73;;;17.73;;
211;SDS011;16228;48.800;9.002;2022-08-19T02:49:54;18.97;;;16.97;;
211;SDS011;16228;48.800;9.002;2022-08-19T02:52:21;19.83;;;17.83;;
211;SDS011;16228;48.800;9.002;2022-08-19T02:54:48;18.87;;;16.97;;
211;SDS011;16228;48.800;9.002;2022-08-19T02:57:15;21.07;;;18.87;;
211;SDS011;16228;48.800;9.002;2022-08-19T02:59:42;20.80;;;18.73;;
211;SDS011;16228;48.800;9.002;2022-08-19T03:02:10;20.60;;;18.60;;
211;SDS011;16228;48.800;9.002;2022-08-19T03:04:37;19.67;;;17.77;;
211;SDS011;16228;48.800;9.002;2022-08-19T03:07:04;19.80;;;17.80;;
211;SDS011;16228;48.800;9.002;2022-08-19T03:09:31;19.43;;;17.43;;
211;SDS011;16228;48.800;9.002;2022-08-19T03:11:58;19.73;;;17.80;;
211;SDS011;16228;48.800;9.002;2022-08-19T03:14:25;18.00;;;16.23;;
211;SDS011;16228;48.800;9.002;2022-08-19T03:16:53;21.27;;;19.20;;
211;SDS011;16228;48.800;9.002;2022-08-19T03:19:21;17.37;;;15.57;;
211;SDS011;16228;48.800;9.002;2022-08-19T03:21:48;19.50;;;17.43;;
211;SDS011;16228;48.800;9.002;2022-08-19T03:24:15;22.90;;;20.53;;
211;SDS011;16228;48.800;9.002;2022-08-19T03:26:44;20.30;;;18.20;;
211;SDS011;16228;48.800;9.002;2022-08-19T03:29:15;17.57;;;15.77;;
211;SDS011;16228;48.800;9.002;2022-08-19T03:31:42;21.40;;;19.30;;
211;SDS011;16228;48.800;9.002;2022-08-19T03:34:10;21.00;;;18.87;;
211;SDS011;16228;48.800;9.002;2022-08-19T03:36:39;19.67;;;17.73;;
211;SDS011;16228;48.800;9.002;2022-08-19T03:39:07;18.47;;;16.60;;
211;SDS011;16228;48.800;9.002;2022-08-19T03:41:36;20.53;;;18.53;;
211;SDS011;16228;48.800;9.002;2022-08-19T03:44:06;21.67;;;19.47;;
211;SDS011;16228;48.800;9.002;2022-08-19T03:46:33;21.93;;;19.73;;
211;SDS011;16228;48.800;9.002;2022-08-19T03:49:02;21.17;;;19.07;;
211;SDS011;16228;48.800;9.002;2022-08-19T03:51:33;24.13;;;21.57;;
211;SDS011;16228;48.800;9.002;2022-08-19T03:54:04;22.37;;;20.07;;
211;SDS011;16228;48.800;9.002;2022-08-19T03:56:33;24.57;;;22.07;;
211;SDS011;16228;48.800;9.002;2022-08-19T03:59:02;21.90;;;19.63;;
211;SDS011;16228;48.800;9.002;2022-08-19T04:01:30;21.97;;;19.73;;
211;SDS011;16228;48.800;9.002;2022-08-19T04:03:57;26.20;;;23.43;;
211;SDS011;16228;48.800;9.002;2022-08-19T04:06:26;24.63;;;21.43;;
211;SDS011;16228;48.800;9.002;2022-08-19T04:08:55;25.67;;;21.57;;
211;SDS011;16228;48.800;9.002;2022-08-19T04:11:25;21.50;;;19.30;;
211;SDS011;16228;48.800;9.002;2022-08-19T04:13:53;25.30;;;22.57;;
211;SDS011;16228;48.800;9.002;2022-08-19T04:16:21;23.87;;;21.37;;
211;SDS011;16228;48.800;9.002;2022-08-19T04:18:54;23.27;;;20.00;;
211;SDS011;16228;48.800;9.002;2022-08-19T04:21:23;23.37;;;20.87;;
211;SDS011;16228;48.800;9.002;2022-08-19T04:23:51;20.37;;;18.37;;
211;SDS011;16228;48.800;9.002;2022-08-19T04:26:20;20.97;;;18.97;;
211;SDS011;16228;48.800;9.002;2022-08-19T04:28:49;20.97;;;18.77;;
211;SDS011;16228;48.800;9.002;2022-08-19T04:31:18;21.30;;;19.13;;
211;SDS011;16228;48.800;9.002;2022-08-19T04:33:47;22.47;;;19.67;;
211;SDS011;16228;48.800;9.002;2022-08-19T04:36:17;24.67;;;22.20;;
211;SDS011;16228;48.800;9.002;2022-08-19T04:38:45;22.73;;;20.43;;
211;SDS011;16228;48.800;9.002;2022-08-19T04:41:12;23.90;;;21.30;;
211;SDS011;16228;48.800;9.002;2022-08-19T04:43:58;24.43;;;22.03;;
211;SDS011;16228;48.800;9.002;2022-08-19T04:46:25;21.80;;;19.40;;
211;SDS011;16228;48.800;9.002;2022-08-19T04:48:55;23.30;;;20.70;;
211;SDS011;16228;48.800;9.002;2022-08-19T04:51:23;25.20;;;22.67;;
211;SDS011;16228;48.800;9.002;2022-08-19T04:53:50;24.57;;;22.07;;
211;SDS011;16228;48.800;9.002;2022-08-19T04:56:18;30.53;;;26.30;;
211;SDS011;16228;48.800;9.002;2022-08-19T04:58:47;24.63;;;22.13;;
211;SDS011;16228;48.800;9.002;2022-08-19T05:01:18;23.47;;;21.03;;
211;SDS011;16228;48.800;9.002;2022-08-19T05:03:46;27.70;;;23.23;;
211;SDS011;16228;48.800;9.002;2022-08-19T05:06:14;23.87;;;21.30;;
211;SDS011;16228;48.800;9.002;2022-08-19T05:08:42;21.87;;;19.67;;
211;SDS011;16228;48.800;9.002;2022-08-19T05:11:11;23.80;;;21.47;;
211;SDS011;16228;48.800;9.002;2022-08-19T05:13:39;24.27;;;21.60;;
211;SDS011;16228;48.800;9.002;2022-08-19T05:16:07;23.10;;;20.67;;
211;SDS011;16228;48.800;9.002;2022-08-19T05:18:37;22.63;;;20.33;;
211;SDS011;16228;48.800;9.002;2022-08-19T05:21:23;24.73;;;22.23;;
211;SDS011;16228;48.800;9.002;2022-08-19T05:24:08;24.27;;;21.87;;
211;SDS011;16228;48.800;9.002;2022-08-19T05:26:38;22.73;;;20.57;;
211;SDS011;16228;48.800;9.002;2022-08-19T05:29:06;20.43;;;18.47;;
211;SDS011;16228;48.800;9.002;2022-08-19T05:31:33;24.40;;;21.87;;
211;SDS011;16228;48.800;9.002;2022-08-19T05:34:02;22.27;;;19.97;;
211;SDS011;16228;48.800;9.002;2022-08-19T05:36:34;22.10;;;19.90;;
211;SDS011;16228;48.800;9.002;2022-08-19T05:39:04;21.07;;;18.80;;
211;SDS011;16228;48.800;9.002;2022-08-19T05:41:32;22.10;;;19.87;;
211;SDS011;16228;48.800;9.002;2022-08-19T05:44:00;23.17;;;20.87;;
211;SDS011;16228;48.800;9.002;2022-08-19T05:46:34;24.77;;;22.27;;
211;SDS011;16228;48.800;9.002;2022-08-19T05:49:03;23.47;;;21.13;;
211;SDS011;16228;48.800;9.002;2022-08-19T05:51:31;23.13;;;20.83;;
211;SDS011;16228;48.800;9.002;2022-08-19T05:54:00;22.40;;;20.20;;
211;SDS011;16228;48.800;9.002;2022-08-19T05:56:27;22.00;;;19.70;;
211;SDS011;16228;48.800;9.002;2022-08-19T05:58:55;23.90;;;21.40;;
211;SDS011;16228;48.800;9.002;2022-08-19T06:01:23;25.20;;;22.67;;
211;SDS011;16228;48.800;9.002;2022-08-19T06:03:52;23.37;;;20.93;;
211;SDS011;16228;48.800;9.002;2022-08-19T06:06:20;23.40;;;21.03;;
211;SDS011;16228;48.800;9.002;2022-08-19T06:08:47;24.10;;;21.60;;
211;SDS011;16228;48.800;9.002;2022-08-19T06:11:18;21.97;;;19.77;;
211;SDS011;16228;48.800;9.002;2022-08-19T06:13:48;23.90;;;20.80;;
211;SDS011;16228;48.800;9.002;2022-08-19T06:16:18;25.27;;;22.60;;
211;SDS011;16228;48.800;9.002;2022-08-19T06:18:47;23.47;;;20.97;;
211;SDS011;16228;48.800;9.002;2022-08-19T06:21:17;22.97;;;20.57;;
211;SDS011;16228;48.800;9.002;2022-08-19T06:23:46;22.70;;;20.40;;
211;SDS011;16228;48.800;9.002;2022-08-19T06:26:13;23.50;;;21.10;;
211;SDS011;16228;48.800;9.002;2022-08-19T06:28:42;24.83;;;22.30;;
211;SDS011;16228;48.800;9.002;2022-08-19T06:31:12;21.90;;;19.60;;
211;SDS011;16228;48.800;9.002;2022-08-19T06:33:41;21.60;;;19.40;;
211;SDS011;16228;48.800;9.002;2022-08-19T06:36:15;20.90;;;18.97;;
211;SDS011;16228;48.800;9.002;2022-08-19T06:38:43;25.17;;;22.50;;
211;SDS011;16228;48.800;9.002;2022-08-19T06:41:11;22.43;;;20.17;;
211;SDS011;16228;48.800;9.002;2022-08-19T06:43:38;24.47;;;22.07;;
211;SDS011;16228;48.800;9.002;2022-08-19T06:46:09;21.60;;;19.47;;
211;SDS011;16228;48.800;9.002;2022-08-19T06:48:37;21.60;;;19.23;;
211;SDS011;16228;48.800;9.002;2022-08-19T06:51:05;21.27;;;19.10;;
211;SDS011;16228;48.800;9.002;2022-08-19T06:53:33;22.00;;;19.80;;
211;SDS011;16228;48.800;9.002;2022-08-19T06:56:00;20.80;;;18.70;;
211;SDS011;16228;48.800;9.002;2022-08-19T06:58:29;20.30;;;18.40;;
211;SDS011;16228;48.800;9.002;2022-08-19T07:00:59;20.20;;;18.23;;
211;SDS011;16228;48.800;9.002;2022-08-19T07:03:28;20.13;;;18.23;;
211;SDS011;16228;48.800;9.002;2022-08-19T07:05:57;19.03;;;17.13;;
211;SDS011;16228;48.800;9.002;2022-08-19T07:08:28;19.53;;;17.63;;
211;SDS011;16228;48.800;9.002;2022-08-19T07:10:55;19.77;;;17.20;;
211;SDS011;16228;48.800;9.002;2022-08-19T07:13:22;17.83;;;16.13;;
211;SDS011;16228;48.800;9.002;2022-08-19T07:15:51;18.03;;;16.23;;
211;SDS011;16228;48.800;9.002;2022-08-19T07:18:18;16.30;;;14.60;;
211;SDS011;16228;48.800;9.002;2022-08-19T07:20:46;17.80;;;16.10;;
211;SDS011;16228;48.800;9.002;2022-08-19T07:23:14;18.70;;;16.83;;
211;SDS011;16228;48.800;9.002;2022-08-19T07:25:41;19.03;;;17.23;;
211;SDS011;16228;48.800;9.002;2022-08-19T07:28:08;16.23;;;14.63;;
211;SDS011;16228;48.800;9.002;2022-08-19T07:30:38;17.13;;;15.53;;
211;SDS011;16228;48.800;9.002;2022-08-19T07:33:07;18.13;;;16.33;;
211;SDS011;16228;48.800;9.002;2022-08-19T07:35:34;16.80;;;15.10;;
211;SDS011;16228;48.800;9.002;2022-08-19T07:38:01;16.87;;;15.17;;
211;SDS011;16228;48.800;9.002;2022-08-19T07:40:31;17.07;;;15.47;;
211;SDS011;16228;48.800;9.002;2022-08-19T07:42:58;20.37;;;18.17;;
211;SDS011;16228;48.800;9.002;2022-08-19T07:45:24;18.80;;;16.70;;
211;SDS011;16228;48.800;9.002;2022-08-19T07:47:52;19.13;;;17.27;;
211;SDS011;16228;48.800;9.002;2022-08-19T07:50:20;17.23;;;15.43;;
211;SDS011;16228;48.800;9.002;2022-08-19T07:52:48;17.87;;;16.10;;
211;SDS011;16228;48.800;9.002;2022-08-19T07:55:17;17.43;;;15.70;;
211;SDS011;16228;48.800;9.002;2022-08-19T07:57:46;18.47;;;16.13;;
211;SDS011;16228;48.800;9.002;2022-08-19T08:00:13;20.03;;;18.03;;
211;SDS011;16228;48.800;9.002;2022-08-19T08:02:41;17.30;;;15.70;;
211;SDS011;16228;48.800;9.002;2022-08-19T08:05:08;15.90;;;14.47;;
211;SDS011;16228;48.800;9.002;2022-08-19T08:07:54;17.53;;;15.83;;
211;SDS011;16228;48.800;9.002;2022-08-19T08:10:39;17.07;;;15.47;;
211;SDS011;16228;48.800;9.002;2022-08-19T08:13:06;17.67;;;16.00;;
211;SDS011;16228;48.800;9.002;2022-08-19T08:15:33;16.93;;;15.20;;
211;SDS011;16228;48.800;9.002;2022-08-19T08:18:02;15.77;;;13.37;;
211;SDS011;16228;48.800;9.002;2022-08-19T08:20:29;18.90;;;17.00;;
211;SDS011;16228;48.800;9.002;2022-08-19T08:22:57;19.13;;;17.23;;
211;SDS011;16228;48.800;9.002;2022-08-19T08:25:42;17.47;;;15.73;;
211;SDS011;16228;48.800;9.002;2022-08-19T08:28:09;17.97;;;16.10;;
211;SDS011;16228;48.800;9.002;2022-08-19T08:30:36;17.90;;;16.30;;
211;SDS011;16228;48.800;9.002;2022-08-19T08:33:06;17.70;;;16.10;;
211;SDS011;16228;48.800;9.002;2022-08-19T08:35:33;19.67;;;17.17;;
211;SDS011;16228;48.800;9.002;2022-08-19T08:38:02;19.97;;;16.83;;
211;SDS011;16228;48.800;9.002;2022-08-19T08:40:31;17.57;;;15.93;;
211;SDS011;16228;48.800;9.002;2022-08-19T08:43:06;18.00;;;16.30;;
211;SDS011;16228;48.800;9.002;2022-08-19T08:45:35;15.83;;;14.23;;
211;SDS011;16228;48.800;9.002;2022-08-19T08:48:10;15.53;;;14.13;;
211;SDS011;16228;48.800;9.002;2022-08-19T08:50:44;14.53;;;13.13;;
211;SDS011;16228;48.800;9.002;2022-08-19T08:53:15;16.23;;;14.53;;
211;SDS011;16228;48.800;9.002;2022-08-19T08:55:43;17.23;;;15.53;;
211;SDS011;16228;48.800;9.002;2022-08-19T08:58:13;16.20;;;14.57;;
211;SDS011;16228;48.800;9.002;2022-08-19T09:00:46;13.63;;;12.33;;
211;SDS011;16228;48.800;9.002;2022-08-19T09:03:16;14.27;;;12.97;;
211;SDS011;16228;48.800;9.002;2022-08-19T09:05:47;15.03;;;13.53;;
211;SDS011;16228;48.800;9.002;2022-08-19T09:08:25;18.17;;;16.17;;
211;SDS011;16228;48.800;9.002;2022-08-19T09:10:59;14.23;;;12.83;;
211;SDS011;16228;48.800;9.002;2022-08-19T09:13:31;14.73;;;13.23;;
211;SDS011;16228;48.800;9.002;2022-08-19T09:16:08;15.80;;;14.30;;
211;SDS011;16228;48.800;9.002;2022-08-19T09:18:39;15.17;;;13.67;;
211;SDS011;16228;48.800;9.002;2022-08-19T09:21:08;14.30;;;13.03;;
211;SDS011;16228;48.800;9.002;2022-08-19T09:23:37;15.77;;;14.33;;
211;SDS011;16228;48.800;9.002;2022-08-19T09:26:06;15.00;;;13.60;;
211;SDS011;16228;48.800;9.002;2022-08-19T09:28:34;16.33;;;14.77;;
211;SDS011;16228;48.800;9.002;2022-08-19T09:31:02;14.00;;;12.73;;
211;SDS011;16228;48.800;9.002;2022-08-19T09:33:29;16.17;;;14.57;;
211;SDS011;16228;48.800;9.002;2022-08-19T09:36:04;16.00;;;13.50;;
211;SDS011;16228;48.800;9.002;2022-08-19T09:38:32;12.23;;;11.17;;
211;SDS011;16228;48.800;9.002;2022-08-19T09:41:05;14.10;;;12.70;;
211;SDS011;16228;48.800;9.002;2022-08-19T09:43:33;16.70;;;14.80;;
211;SDS011;16228;48.800;9.002;2022-08-19T09:46:01;14.17;;;12.67;;
211;SDS011;16228;48.800;9.002;2022-08-19T09:48:30;13.53;;;12.13;;
211;SDS011;16228;48.800;9.002;2022-08-19T09:51:02;11.00;;;10.10;;
211;SDS011;16228;48.800;9.002;2022-08-19T09:53:30;12.30;;;11.00;;
211;SDS011;16228;48.800;9.002;2022-08-19T09:55:57;11.00;;;10.03;;
211;SDS011;16228;48.800;9.002;2022-08-19T09:58:25;13.23;;;12.03;;
211;SDS011;16228;48.800;9.002;2022-08-19T10:00:54;12.43;;;11.30;;
211;SDS011;16228;48.800;9.002;2022-08-19T10:03:21;12.07;;;10.83;;
211;SDS011;16228;48.800;9.002;2022-08-19T10:05:49;11.97;;;10.70;;
211;SDS011;16228;48.800;9.002;2022-08-19T10:08:17;11.53;;;10.30;;
211;SDS011;16228;48.800;9.002;2022-08-19T10:10:45;10.83;;;9.87;;
211;SDS011;16228;48.800;9.002;2022-08-19T10:13:13;11.20;;;10.17;;
211;SDS011;16228;48.800;9.002;2022-08-19T10:15:43;10.43;;;9.43;;
211;SDS011;16228;48.800;9.002;2022-08-19T10:18:10;11.07;;;9.97;;
211;SDS011;16228;48.800;9.002;2022-08-19T10:20:37;10.93;;;9.67;;
211;SDS011;16228;48.800;9.002;2022-08-19T10:23:06;12.77;;;11.43;;
211;SDS011;16228;48.800;9.002;2022-08-19T10:25:33;11.67;;;10.57;;
211;SDS011;16228;48.800;9.002;2022-08-19T10:28:01;10.87;;;9.77;;
211;SDS011;16228;48.800;9.002;2022-08-19T10:30:28;11.00;;;10.10;;
211;SDS011;16228;48.800;9.002;2022-08-19T10:32:56;9.20;;;8.30;;
211;SDS011;16228;48.800;9.002;2022-08-19T10:35:23;12.00;;;10.73;;
211;SDS011;16228;48.800;9.002;2022-08-19T10:37:51;10.03;;;8.23;;
211;SDS011;16228;48.800;9.002;2022-08-19T10:40:18;8.17;;;7.47;;
211;SDS011;16228;48.800;9.002;2022-08-19T10:42:46;9.47;;;8.47;;
211;SDS011;16228;48.800;9.002;2022-08-19T10:45:13;9.07;;;8.03;;
211;SDS011;16228;48.800;9.002;2022-08-19T10:47:40;8.37;;;7.60;;
211;SDS011;16228;48.800;9.002;2022-08-19T10:50:08;7.80;;;7.10;;
211;SDS011;16228;48.800;9.002;2022-08-19T10:52:52;9.20;;;7.40;;
211;SDS011;16228;48.800;9.002;2022-08-19T10:55:22;11.80;;;9.03;;
211;SDS011;16228;48.800;9.002;2022-08-19T10:58:11;7.30;;;6.70;;
211;SDS011;16228;48.800;9.002;2022-08-19T11:00:39;8.27;;;7.47;;
211;SDS011;16228;48.800;9.002;2022-08-19T11:03:07;10.70;;;8.27;;
211;SDS011;16228;48.800;9.002;2022-08-19T11:05:35;9.00;;;8.03;;
211;SDS011;16228;48.800;9.002;2022-08-19T11:08:03;10.57;;;8.40;;
211;SDS011;16228;48.800;9.002;2022-08-19T11:10:32;7.87;;;7.07;;
211;SDS011;16228;48.800;9.002;2022-08-19T11:12:59;7.83;;;7.03;;
211;SDS011;16228;48.800;9.002;2022-08-19T11:15:27;7.07;;;6.47;;
211;SDS011;16228;48.800;9.002;2022-08-19T11:17:54;8.70;;;7.90;;
211;SDS011;16228;48.800;9.002;2022-08-19T11:20:21;9.97;;;7.47;;
211;SDS011;16228;48.800;9.002;2022-08-19T11:22:50;8.40;;;7.57;;
211;SDS011;16228;48.800;9.002;2022-08-19T11:25:18;7.37;;;6.67;;
211;SDS011;16228;48.800;9.002;2022-08-19T11:27:45;7.30;;;6.60;;
211;SDS011;16228;48.800;9.002;2022-08-19T11:30:16;8.67;;;7.80;;
211;SDS011;16228;48.800;9.002;2022-08-19T11:32:43;7.47;;;6.87;;
211;SDS011;16228;48.800;9.002;2022-08-19T11:35:10;6.87;;;6.37;;
211;SDS011;16228;48.800;9.002;2022-08-19T11:37:37;5.37;;;4.90;;
211;SDS011;16228;48.800;9.002;2022-08-19T11:40:06;5.70;;;5.20;;
211;SDS011;16228;48.800;9.002;2022-08-19T11:42:34;5.70;;;5.10;;
211;SDS011;16228;48.800;9.002;2022-08-19T11:45:18;7.00;;;6.17;;
211;SDS011;16228;48.800;9.002;2022-08-19T11:47:45;5.67;;;5.23;;
211;SDS011;16228;48.800;9.002;2022-08-19T11:50:13;6.27;;;5.77;;
211;SDS011;16228;48.800;9.002;2022-08-19T11:52:40;4.97;;;4.57;;
211;SDS011;16228;48.800;9.002;2022-08-19T11:55:10;5.47;;;5.03;;
211;SDS011;16228;48.800;9.002;2022-08-19T11:57:38;5.00;;;4.60;;
211;SDS011;16228;48.800;9.002;2022-08-19T12:00:06;6.17;;;5.40;;
211;SDS011;16228;48.800;9.002;2022-08-19T12:02:34;7.00;;;5.27;;
211;SDS011;16228;48.800;9.002;2022-08-19T12:05:01;5.53;;;5.07;;
211;SDS011;16228;48.800;9.002;2022-08-19T12:07:28;5.87;;;5.27;;
211;SDS011;16228;48.800;9.002;2022-08-19T12:09:58;5.10;;;4.60;;
211;SDS011;16228;48.800;9.002;2022-08-19T12:12:27;4.97;;;4.47;;
211;SDS011;16228;48.800;9.002;2022-08-19T12:14:54;7.97;;;5.67;;
211;SDS011;16228;48.800;9.002;2022-08-19T12:17:24;5.57;;;4.93;;
211;SDS011;16228;48.800;9.002;2022-08-19T12:19:51;4.87;;;4.47;;
211;SDS011;16228;48.800;9.002;2022-08-19T12:22:19;6.50;;;5.20;;
211;SDS011;16228;48.800;9.002;2022-08-19T12:24:46;6.07;;;5.47;;
211;SDS011;16228;48.800;9.002;2022-08-19T12:27:16;5.40;;;4.87;;
211;SDS011;16228;48.800;9.002;2022-08-19T12:29:44;4.40;;;4.10;;
211;SDS011;16228;48.800;9.002;2022-08-19T12:32:11;4.27;;;3.87;;
211;SDS011;16228;48.800;9.002;2022-08-19T12:34:38;6.07;;;4.10;;
211;SDS011;16228;48.800;9.002;2022-08-19T12:37:06;6.13;;;4.10;;
211;SDS011;16228;48.800;9.002;2022-08-19T12:39:34;4.73;;;4.40;;
211;SDS011;16228;48.800;9.002;2022-08-19T12:42:02;4.57;;;4.17;;
211;SDS011;16228;48.800;9.002;2022-08-19T12:44:29;3.93;;;3.60;;
211;SDS011;16228;48.800;9.002;2022-08-19T12:46:58;4.33;;;3.97;;
211;SDS011;16228;48.800;9.002;2022-08-19T12:49:26;5.83;;;5.27;;
211;SDS011;16228;48.800;9.002;2022-08-19T12:51:54;4.93;;;4.60;;
211;SDS011;16228;48.800;9.002;2022-08-19T12:54:23;4.93;;;4.53;;
211;SDS011;16228;48.800;9.002;2022-08-19T12:56:50;5.00;;;4.60;;
211;SDS011;16228;48.800;9.002;2022-08-19T12:59:17;4.27;;;3.87;;
211;SDS011;16228;48.800;9.002;2022-08-19T13:01:44;5.10;;;4.70;;
211;SDS011;16228;48.800;9.002;2022-08-19T13:04:12;5.03;;;4.63;;
211;SDS011;16228;48.800;9.002;2022-08-19T13:06:40;5.50;;;4.83;;
211;SDS011;16228;48.800;9.002;2022-08-19T13:09:07;6.90;;;4.90;;
211;SDS011;16228;48.800;9.002;2022-08-19T13:11:34;5.10;;;4.70;;
211;SDS011;16228;48.800;9.002;2022-08-19T13:14:03;5.33;;;4.80;;
211;SDS011;16228;48.800;9.002;2022-08-19T13:16:30;5.13;;;4.30;;
211;SDS011;16228;48.800;9.002;2022-08-19T13:18:58;5.13;;;4.60;;
211;SDS011;16228;48.800;9.002;2022-08-19T13:21:29;6.13;;;4.43;;
211;SDS011;16228;48.800;9.002;2022-08-19T13:23:56;4.33;;;3.93;;
211;SDS011;16228;48.800;9.002;2022-08-19T13:26:23;4.50;;;4.07;;
211;SDS011;16228;48.800;9.002;2022-08-19T13:28:50;4.97;;;4.57;;
211;SDS011;16228;48.800;9.002;2022-08-19T13:31:35;5.40;;;5.00;;
211;SDS011;16228;48.800;9.002;2022-08-19T13:34:26;4.90;;;4.50;;
211;SDS011;16228;48.800;9.002;2022-08-19T13:36:57;5.67;;;5.17;;
211;SDS011;16228;48.800;9.002;2022-08-19T13:39:24;5.50;;;5.10;;
211;SDS011;16228;48.800;9.002;2022-08-19T13:41:52;5.40;;;5.00;;
211;SDS011;16228;48.800;9.002;2022-08-19T13:44:19;6.00;;;5.50;;
211;SDS011;16228;48.800;9.002;2022-08-19T13:46:47;5.20;;;4.80;;
211;SDS011;16228;48.800;9.002;2022-08-19T13:49:18;5.27;;;4.87;;
211;SDS011;16228;48.800;9.002;2022-08-19T13:51:45;5.00;;;4.47;;
211;SDS011;16228;48.800;9.002;2022-08-19T13:54:14;4.90;;;4.50;;
211;SDS011;16228;48.800;9.002;2022-08-19T13:56:41;6.47;;;5.43;;
211;SDS011;16228;48.800;9.002;2022-08-19T13:59:10;6.27;;;4.83;;
211;SDS011;16228;48.800;9.002;2022-08-19T14:01:38;5.10;;;4.67;;
211;SDS011;16228;48.800;9.002;2022-08-19T14:04:06;5.33;;;4.83;;
211;SDS011;16228;48.800;9.002;2022-08-19T14:06:34;4.80;;;4.37;;
211;SDS011;16228;48.800;9.002;2022-08-19T14:09:01;5.90;;;5.47;;
211;SDS011;16228;48.800;9.002;2022-08-19T14:11:29;6.07;;;5.17;;
211;SDS011;16228;48.800;9.002;2022-08-19T14:13:56;5.13;;;4.73;;
211;SDS011;16228;48.800;9.002;2022-08-19T14:16:24;5.50;;;5.00;;
211;SDS011;16228;48.800;9.002;2022-08-19T14:18:52;5.37;;;4.87;;
211;SDS011;16228;48.800;9.002;2022-08-19T14:21:20;5.60;;;5.20;;
211;SDS011;16228;48.800;9.002;2022-08-19T14:23:49;6.10;;;5.60;;
211;SDS011;16228;48.800;9.002;2022-08-19T14:26:17;5.10;;;4.70;;
211;SDS011;16228;48.800;9.002;2022-08-19T14:28:47;7.30;;;5.03;;
211;SDS011;16228;48.800;9.002;2022-08-19T14:31:15;5.33;;;4.93;;
211;SDS011;16228;48.800;9.002;2022-08-19T14:33:44;4.60;;;4.30;;
211;SDS011;16228;48.800;9.002;2022-08-19T14:36:12;5.40;;;5.00;;
211;SDS011;16228;48.800;9.002;2022-08-19T14:38:39;5.17;;;4.60;;
211;SDS011;16228;48.800;9.002;2022-08-19T14:41:09;4.83;;;4.43;;
211;SDS011;16228;48.800;9.002;2022-08-19T14:43:38;5.37;;;4.87;;
211;SDS011;16228;48.800;9.002;2022-08-19T14:46:07;5.27;;;4.80;;
211;SDS011;16228;48.800;9.002;2022-08-19T14:48:35;5.00;;;4.60;;
211;SDS011;16228;48.800;9.002;2022-08-19T14:51:04;4.83;;;4.43;;
211;SDS011;16228;48.800;9.002;2022-08-19T14:53:31;6.53;;;5.40;;
211;SDS011;16228;48.800;9.002;2022-08-19T14:55:59;5.03;;;4.53;;
211;SDS011;16228;48.800;9.002;2022-08-19T14:58:27;8.23;;;5.23;;
211;SDS011;16228;48.800;9.002;2022-08-19T15:00:54;5.47;;;4.97;;
211;SDS011;16228;48.800;9.002;2022-08-19T15:03:23;5.30;;;4.90;;
211;SDS011;16228;48.800;9.002;2022-08-19T15:05:51;4.97;;;4.67;;